BZE weather

Philip S. W. Goldson International Airport
Belize City, Belize District, Belize

Public forecast

Using degrees Celsius for public forecast. Weather courtesy of forecast.io.

Current aviation weather report (METAR) for Philip S. W. Goldson International Airport

Retrieved 2019/12/07 13:00 UTC (59 minutes ago):

MZBZ 071300Z 00000KT 9999 FEW023 22/21 A3011 Q1019 NOSIG

Aviation forecast (TAF) for Philip S. W. Goldson International Airport

Retrieved 2019/12/07 12:09 UTC (2 hours ago):

TAF MZBZ 071100Z 0712/0812 00000KT 9999 SCT024 BECMG 0715/0717 04007KT BECMG 0803/0805 VRB03KT